Time;durP1;ratioP1;P1;durP2;ratioP2;P2;SDS_P1;SDS_P2;PMS_P1;PMS_P2;Temp;Humidity;BMP_temperature;BMP_pressure;BME280_temperature;BME280_humidity;BME280_pressure;Samples;Min_cycle;Max_cycle;Signal;HPM_P1;HPM_P2
2022/12/10 00:01:13;;;;;;;61.92;21.52;;;;;;;7.91;100.00;99669.94;5071233;28;20032;-30
2022/12/10 00:03:38;;;;;;;65.85;22.70;;;;;;;8.01;100.00;99682.78;5089320;28;20786;-37
2022/12/10 00:06:06;;;;;;;67.15;23.48;;;;;;;8.04;100.00;99675.16;5089249;28;20035;-29
2022/12/10 00:08:33;;;;;;;77.90;25.52;;;;;;;8.01;100.00;99680.13;5071112;28;20024;-27
2022/12/10 00:10:59;;;;;;;67.30;25.15;;;;;;;8.17;100.00;99673.47;5071202;28;20048;-30
2022/12/10 00:13:26;;;;;;;69.13;25.98;;;;;;;8.14;100.00;99680.03;5089123;28;20035;-31
2022/12/10 00:15:51;;;;;;;72.40;24.80;;;;;;;8.02;100.00;99640.03;5088937;28;20389;-31
2022/12/10 00:18:16;;;;;;;72.65;23.92;;;;;;;7.96;100.00;99645.41;5089404;28;20082;-28
2022/12/10 00:20:42;;;;;;;76.25;24.77;;;;;;;8.17;100.00;99647.75;5071022;28;20063;-28
2022/12/10 00:23:07;;;;;;;75.53;25.42;;;;;;;8.28;100.00;99659.53;5089136;28;20546;-31
2022/12/10 00:25:33;;;;;;;74.82;25.15;;;;;;;8.33;100.00;99649.06;5088975;28;20024;-30
2022/12/10 00:27:58;;;;;;;74.65;26.05;;;;;;;8.39;100.00;99640.22;5089057;28;20093;-30
2022/12/10 00:30:24;;;;;;;70.55;26.00;;;;;;;8.31;100.00;99659.09;5089290;28;20380;-28
2022/12/10 00:32:50;;;;;;;68.28;24.98;;;;;;;8.26;100.00;99656.28;5089174;28;20396;-30
2022/12/10 00:35:16;;;;;;;73.00;25.08;;;;;;;8.22;100.00;99653.22;5089161;28;20024;-31
2022/12/10 00:37:41;;;;;;;71.15;24.77;;;;;;;8.36;100.00;99653.97;5089057;28;20031;-28
2022/12/10 00:40:07;;;;;;;67.13;23.10;;;;;;;8.38;100.00;99654.56;5089363;28;20040;-28
2022/12/10 00:42:33;;;;;;;69.38;25.02;;;;;;;8.37;100.00;99652.09;5088932;28;20117;-31
2022/12/10 00:44:58;;;;;;;69.85;25.25;;;;;;;8.23;100.00;99643.41;5088504;28;20789;-28
2022/12/10 00:47:24;;;;;;;67.15;23.42;;;;;;;8.26;100.00;99661.59;5088667;28;20051;-28
2022/12/10 00:49:49;;;;;;;68.50;23.52;;;;;;;8.29;100.00;99657.69;5088680;28;20028;-34
2022/12/10 00:52:14;;;;;;;61.47;22.48;;;;;;;8.39;100.00;99661.47;5070398;28;20481;-33
2022/12/10 00:54:40;;;;;;;78.93;24.90;;;;;;;8.66;100.00;99658.66;5070180;28;20024;-30
2022/12/10 00:57:06;;;;;;;74.22;24.58;;;;;;;8.51;100.00;99664.31;5088396;28;20143;-30
2022/12/10 00:59:31;;;;;;;70.10;24.77;;;;;;;8.31;100.00;99634.38;5088591;28;20767;-28
2022/12/10 01:01:57;;;;;;;79.45;24.75;;;;;;;8.39;100.00;99661.47;5088136;28;20609;-28
2022/12/10 01:04:22;;;;;;;68.85;24.33;;;;;;;8.34;100.00;99647.25;5069816;28;20134;-28
2022/12/10 01:06:53;;;;;;;76.13;23.98;;;;;;;8.19;100.00;99671.41;5088934;28;20044;-29
2022/12/10 01:09:27;;;;;;;70.75;23.13;;;;;;;8.20;100.00;99665.09;5088479;28;20023;-30
2022/12/10 01:11:54;;;;;;;74.88;25.83;;;;;;;7.85;100.00;99638.91;5088299;28;20587;-28
2022/12/10 01:14:29;;;;;;;66.80;23.60;;;;;;;7.90;100.00;99646.25;5069798;28;20027;-28
2022/12/10 01:16:56;;;;;;;69.88;22.63;;;;;;;8.23;100.00;99643.41;5087798;28;20093;-28
2022/12/10 01:19:22;;;;;;;81.75;26.48;;;;;;;8.31;100.00;99653.78;5069836;28;20039;-28
2022/12/10 01:21:52;;;;;;;82.07;24.58;;;;;;;8.12;100.00;99641.44;5069828;28;20044;-30
2022/12/10 01:24:22;;;;;;;80.90;25.48;;;;;;;8.15;100.00;99627.72;5087939;28;20025;-28
2022/12/10 01:26:48;;;;;;;81.65;23.90;;;;;;;8.21;100.00;99627.69;5087868;28;20028;-31
2022/12/10 01:29:13;;;;;;;78.38;25.27;;;;;;;8.19;100.00;99608.50;5087662;28;20042;-31
2022/12/10 01:31:39;;;;;;;69.55;22.75;;;;;;;8.07;100.00;99626.16;5087639;28;20082;-28
2022/12/10 01:34:07;;;;;;;76.20;23.83;;;;;;;8.10;100.00;99598.34;5088001;28;20031;-28
2022/12/10 01:36:36;;;;;;;76.53;24.42;;;;;;;8.01;100.00;99606.56;5069592;28;20397;-28
2022/12/10 01:39:04;;;;;;;78.57;23.38;;;;;;;7.98;100.00;99604.31;5087668;28;20122;-29
2022/12/10 01:41:39;;;;;;;83.70;24.10;;;;;;;8.00;100.00;99612.09;5069283;28;20424;-28
2022/12/10 01:44:07;;;;;;;95.90;25.15;;;;;;;7.99;100.00;99618.44;5069461;28;20116;-31
2022/12/10 01:46:34;;;;;;;;;;;;;;;8.21;100.00;99613.59;5088152;28;20546;-30
2022/12/10 01:49:03;;;;;;;82.63;23.13;;;;;;;8.16;100.00;99598.28;5087622;28;19908;-28
2022/12/10 01:51:31;;;;;;;84.60;26.52;;;;;;;8.48;100.00;99605.44;5087167;28;20032;-33
2022/12/10 01:53:57;;;;;;;71.60;24.80;;;;;;;8.41;100.00;99606.31;5068791;28;20054;-29
2022/12/10 01:56:23;;;;;;;72.65;22.77;;;;;;;8.31;100.00;99573.25;5087047;28;20519;-28
2022/12/10 01:58:51;;;;;;;74.55;23.67;;;;;;;8.53;100.00;99592.34;5069210;28;20037;-30
2022/12/10 02:01:23;;;;;;;;;;;;;;;8.51;100.00;99578.47;5069532;28;20055;-29
2022/12/10 02:04:11;;;;;;;75.93;22.88;;;;;;;8.59;100.00;99575.53;5087136;28;19919;-31
2022/12/10 02:06:56;;;;;;;65.32;21.83;;;;;;;8.60;100.00;99585.13;5087098;28;20040;-31
2022/12/10 02:09:30;;;;;;;68.55;24.13;;;;;;;8.59;100.00;99591.47;5087336;28;20024;-32
2022/12/10 02:12:00;;;;;;;91.65;22.98;;;;;;;8.73;100.00;99579.69;5086969;28;20028;-35
2022/12/10 02:14:54;;;;;;;67.57;21.15;;;;;;;8.69;100.00;99581.16;5087095;28;20051;-29
2022/12/10 02:17:27;;;;;;;68.40;23.25;;;;;;;8.70;100.00;99584.63;5087033;28;20858;-28
2022/12/10 02:20:22;;;;;;;69.95;20.55;;;;;;;8.74;100.00;99576.00;5086697;28;20028;-29
2022/12/10 02:22:57;;;;;;;70.78;22.83;;;;;;;8.69;100.00;99569.72;5087207;28;20028;-30
2022/12/10 02:25:32;;;;;;;65.47;19.13;;;;;;;8.42;100.00;99565.44;5068439;28;20473;-28
2022/12/10 02:28:05;;;;;;;59.78;19.02;;;;;;;8.50;100.00;99576.81;5086744;28;20036;-29
2022/12/10 02:30:32;;;;;;;56.40;20.27;;;;;;;8.53;100.00;99566.56;5068937;28;20123;-29
2022/12/10 02:33:02;;;;;;;60.97;21.83;;;;;;;8.56;100.00;99562.66;5086931;28;20503;-28
2022/12/10 02:35:31;;;;;;;62.70;18.45;;;;;;;8.56;100.00;99563.50;5068677;28;20495;-33
2022/12/10 02:38:05;;;;;;;53.88;18.23;;;;;;;8.70;100.00;99558.03;5068111;28;20024;-30
2022/12/10 02:40:34;;;;;;;61.55;18.20;;;;;;;8.70;100.00;99561.50;5069019;28;20089;-28
2022/12/10 02:43:00;;;;;;;59.40;18.73;;;;;;;8.36;100.00;99558.31;5068696;28;20031;-29
2022/12/10 02:45:28;;;;;;;56.83;18.95;;;;;;;8.49;100.00;99573.34;5086478;28;20024;-28
2022/12/10 02:47:57;;;;;;;55.17;18.98;;;;;;;8.61;100.00;99560.19;5086702;28;20127;-27
2022/12/10 02:50:23;;;;;;;59.47;19.85;;;;;;;8.48;100.00;99563.78;5068149;28;20043;-34
2022/12/10 02:52:49;;;;;;;53.42;18.83;;;;;;;8.23;100.00;99542.47;5068599;28;20484;-29
2022/12/10 02:55:15;;;;;;;62.35;18.58;;;;;;;8.50;100.00;99560.88;5086670;28;20036;-33
2022/12/10 02:57:59;;;;;;;58.70;19.42;;;;;;;8.45;100.00;99570.31;5086704;28;20039;-29
2022/12/10 03:00:25;;;;;;;57.67;18.05;;;;;;;8.15;100.00;99558.66;5068292;28;20036;-31
2022/12/10 03:03:24;;;;;;;54.08;18.33;;;;;;;8.49;100.00;99569.88;5086786;28;20027;-31
2022/12/10 03:06:06;;;;;;;51.95;18.10;;;;;;;8.22;100.00;99562.09;5068181;28;20073;-31
2022/12/10 03:08:38;;;;;;;67.63;18.70;;;;;;;8.40;100.00;99578.09;5068202;28;20527;-30
2022/12/10 03:11:23;;;;;;;48.92;16.13;;;;;;;8.25;100.00;99582.91;5086470;28;20111;-28
2022/12/10 03:14:10;;;;;;;50.33;17.58;;;;;;;8.27;100.00;99561.44;5086804;28;20029;-31
2022/12/10 03:16:42;;;;;;;57.33;17.55;;;;;;;8.37;100.00;99557.25;5086691;28;20035;-30
2022/12/10 03:19:13;;;;;;;56.97;17.70;;;;;;;8.24;100.00;99547.56;5086590;28;20048;-32
2022/12/10 03:21:41;;;;;;;55.60;17.63;;;;;;;8.52;100.00;99580.06;5067799;28;20024;-30
2022/12/10 03:24:09;;;;;;;51.72;17.42;;;;;;;8.30;100.00;99567.16;5068111;28;20567;-28
2022/12/10 03:26:36;;;;;;;57.75;17.08;;;;;;;8.37;100.00;99567.91;5068187;28;20027;-33
2022/12/10 03:29:08;;;;;;;62.03;18.43;;;;;;;8.47;100.00;99566.63;5068162;28;20038;-28
2022/12/10 03:31:35;;;;;;;52.20;17.50;;;;;;;8.40;100.00;99559.50;5068066;28;20028;-35
2022/12/10 03:34:01;;;;;;;52.42;17.17;;;;;;;8.41;100.00;99565.66;5086102;28;20567;-35
2022/12/10 03:36:29;;;;;;;52.22;15.73;;;;;;;8.40;100.00;99564.00;5086075;28;20039;-29
2022/12/10 03:38:54;;;;;;;56.33;17.88;;;;;;;8.47;100.00;99567.44;5086281;28;20602;-28
2022/12/10 03:41:20;;;;;;;48.40;16.27;;;;;;;8.42;100.00;99554.81;5086518;28;20452;-29
2022/12/10 03:43:57;;;;;;;52.25;15.73;;;;;;;8.24;100.00;99528.16;5085877;28;20028;-30
2022/12/10 03:46:25;;;;;;;55.00;16.23;;;;;;;8.36;100.00;99560.97;5067947;28;20047;-28
2022/12/10 03:48:51;;;;;;;48.88;16.33;;;;;;;8.38;100.00;99558.91;5086558;28;20050;-28
2022/12/10 03:51:16;;;;;;;46.75;17.80;;;;;;;8.13;100.00;99534.16;5089850;28;20488;-30
2022/12/10 03:53:42;;;;;;;50.95;15.68;;;;;;;8.19;100.00;99523.50;5089445;28;20030;-31
2022/12/10 03:56:08;;;;;;;44.58;14.80;;;;;;;8.19;100.00;99528.81;5071094;28;20488;-27
2022/12/10 03:58:33;;;;;;;53.05;15.95;;;;;;;8.24;100.00;99544.09;5089816;28;20035;-30
2022/12/10 04:00:58;;;;;;;57.17;17.48;;;;;;;7.94;100.00;99514.69;5089466;28;20554;-28
2022/12/10 04:03:24;;;;;;;46.95;16.70;;;;;;;8.22;100.00;99541.66;5089414;28;20028;-31
2022/12/10 04:05:49;;;;;;;51.72;14.77;;;;;;;8.33;100.00;99531.34;5089393;28;20031;-31
2022/12/10 04:08:15;;;;;;;47.50;15.57;;;;;;;8.24;100.00;99530.81;5089781;28;20035;-30
2022/12/10 04:10:40;;;;;;;43.45;16.33;;;;;;;8.19;100.00;99533.28;5089440;28;20179;-30
2022/12/10 04:18:34;;;;;;;47.03;16.42;;;;;;;8.34;100.00;99541.78;5089221;28;20093;-29
2022/12/10 04:29:12;;;;;;;43.30;13.90;;;;;;;7.83;100.00;99550.72;5089298;28;20043;-29
2022/12/10 04:31:37;;;;;;;41.92;14.68;;;;;;;7.96;100.00;99563.09;5088979;28;20024;-30
2022/12/10 04:34:02;;;;;;;45.97;15.15;;;;;;;7.99;100.00;99570.63;5088979;28;20032;-31
2022/12/10 04:36:28;;;;;;;44.70;15.02;;;;;;;7.99;100.00;99560.00;5088944;28;20023;-30
2022/12/10 04:38:53;;;;;;;44.10;15.10;;;;;;;7.65;100.00;99533.66;5088771;28;20043;-30
2022/12/10 04:41:19;;;;;;;41.97;14.30;;;;;;;7.85;100.00;99549.47;5088770;28;20032;-28
2022/12/10 04:43:44;;;;;;;44.13;14.88;;;;;;;8.03;100.00;99561.22;5088655;28;20032;-29
2022/12/10 04:46:11;;;;;;;36.38;13.52;;;;;;;8.15;100.00;99558.66;5088614;28;20024;-28
2022/12/10 04:48:36;;;;;;;44.50;15.02;;;;;;;7.98;100.00;99547.75;5088725;28;20028;-30
2022/12/10 04:51:02;;;;;;;44.95;14.98;;;;;;;8.13;100.00;99550.09;5088739;28;20016;-30
2022/12/10 04:53:27;;;;;;;45.08;16.83;;;;;;;8.09;100.00;99511.72;5088303;28;20036;-31
2022/12/10 04:55:53;;;;;;;40.15;14.93;;;;;;;8.19;100.00;99520.00;5070511;28;20491;-30
2022/12/10 04:58:18;;;;;;;42.05;13.82;;;;;;;8.43;100.00;99537.03;5088362;28;20027;-31
2022/12/10 05:00:43;;;;;;;43.35;14.77;;;;;;;8.29;100.00;99522.19;5088034;28;20496;-28
2022/12/10 05:03:09;;;;;;;44.75;14.82;;;;;;;8.22;100.00;99532.88;5088468;28;20027;-29
2022/12/10 05:05:35;;;;;;;44.13;14.85;;;;;;;8.36;100.00;99537.06;5069966;28;20040;-32
2022/12/10 05:08:00;;;;;;;39.05;15.70;;;;;;;8.38;100.00;99524.38;5087744;28;20043;-32
2022/12/10 05:10:26;;;;;;;44.53;15.80;;;;;;;8.11;100.00;99512.31;5088419;28;20020;-31
2022/12/10 05:12:52;;;;;;;50.65;16.30;;;;;;;8.45;100.00;99546.38;5070006;28;20024;-29
2022/12/10 05:15:17;;;;;;;41.70;15.77;;;;;;;8.41;100.00;99553.16;5088222;28;20028;-28
2022/12/10 05:17:43;;;;;;;44.65;15.20;;;;;;;8.42;100.00;99546.03;5088032;28;20572;-28
2022/12/10 05:20:09;;;;;;;50.42;15.77;;;;;;;8.48;100.00;99549.66;5087812;28;20035;-29
2022/12/10 05:25:26;;;;;;;43.45;15.45;;;;;;;8.34;100.00;99531.16;5056366;28;20043;-31
2022/12/10 05:27:51;;;;;;;53.33;16.95;;;;;;;8.41;100.00;99560.34;5087722;28;20028;-31
2022/12/10 05:30:17;;;;;;;50.53;15.88;;;;;;;8.30;100.00;99537.91;5087649;28;20095;-29
2022/12/10 05:32:43;;;;;;;45.72;15.93;;;;;;;8.34;100.00;99536.47;5069399;28;20127;-31
2022/12/10 05:35:09;;;;;;;52.50;16.63;;;;;;;8.27;100.00;99535.69;5087312;28;20103;-28
2022/12/10 05:37:34;;;;;;;55.78;17.85;;;;;;;8.25;100.00;99537.75;5087766;28;20036;-31
2022/12/10 05:40:00;;;;;;;58.58;18.52;;;;;;;8.30;100.00;99539.78;5087286;28;20103;-28
2022/12/10 05:42:25;;;;;;;56.08;17.80;;;;;;;8.07;100.00;99529.72;5087512;28;20032;-29
2022/12/10 05:44:50;;;;;;;63.70;21.35;;;;;;;8.24;100.00;99538.78;5087549;28;20156;-28
2022/12/10 05:47:16;;;;;;;61.92;19.63;;;;;;;8.29;100.00;99515.03;5087695;28;20042;-28
2022/12/10 05:49:41;;;;;;;55.97;17.08;;;;;;;8.54;100.00;99519.53;5087120;28;20419;-31
2022/12/10 05:52:08;;;;;;;49.03;16.27;;;;;;;8.45;100.00;99527.78;5087246;28;20039;-32
2022/12/10 05:54:33;;;;;;;57.30;17.65;;;;;;;8.43;100.00;99529.84;5069015;28;20036;-28
2022/12/10 05:56:59;;;;;;;46.20;14.90;;;;;;;8.22;100.00;99543.50;5087446;28;20028;-28
2022/12/10 05:59:24;;;;;;;48.30;15.18;;;;;;;8.31;100.00;99515.63;5087193;28;20056;-32
2022/12/10 06:01:50;;;;;;;49.60;15.45;;;;;;;8.44;100.00;99530.69;5068768;28;20497;-30
2022/12/10 06:04:15;;;;;;;46.97;15.73;;;;;;;8.59;100.00;99543.63;5087237;28;20131;-30
2022/12/10 06:06:40;;;;;;;45.45;15.45;;;;;;;8.52;100.00;99522.44;5068933;28;20053;-29
2022/12/10 06:09:10;;;;;;;51.30;17.00;;;;;;;8.52;100.00;99538.38;5086957;28;20059;-28
2022/12/10 06:11:36;;;;;;;54.28;18.83;;;;;;;8.45;100.00;99538.41;5086707;28;20028;-31
2022/12/10 06:14:02;;;;;;;54.90;18.33;;;;;;;8.55;100.00;99516.66;5068565;28;20085;-31
2022/12/10 06:16:28;;;;;;;51.70;16.58;;;;;;;8.39;100.00;99515.34;5087108;28;20043;-35
2022/12/10 06:18:54;;;;;;;52.40;18.17;;;;;;;8.45;100.00;99519.81;5068119;28;20150;-31
2022/12/10 06:21:20;;;;;;;50.47;17.17;;;;;;;8.49;100.00;99522.88;5068800;28;20089;-30
2022/12/10 06:23:51;;;;;;;58.97;23.10;;;;;;;8.19;100.00;99530.63;5086818;28;20038;-27
2022/12/10 06:26:22;;;;;;;49.00;16.40;;;;;;;8.24;100.00;99517.53;5068682;28;20442;-36
2022/12/10 06:28:48;;;;;;;47.17;17.73;;;;;;;8.26;100.00;99528.75;5086970;28;20032;-30
2022/12/10 06:31:14;;;;;;;53.00;18.50;;;;;;;8.31;100.00;99518.28;5086851;28;20420;-29
2022/12/10 06:33:41;;;;;;;57.05;18.20;;;;;;;8.41;100.00;99513.31;5086690;28;20032;-28
2022/12/10 06:36:08;;;;;;;50.35;16.17;;;;;;;8.50;100.00;99513.03;5068440;28;20016;-30
2022/12/10 06:38:34;;;;;;;53.75;17.40;;;;;;;8.56;100.00;99522.78;5068410;28;20038;-32
2022/12/10 06:41:03;;;;;;;53.70;19.27;;;;;;;8.56;100.00;99525.44;5068386;28;20031;-31
2022/12/10 06:43:29;;;;;;;55.50;21.52;;;;;;;8.63;100.00;99523.56;5086862;28;20077;-29
2022/12/10 06:45:55;;;;;;;52.40;17.95;;;;;;;8.55;100.00;99510.56;5086431;28;20032;-30
2022/12/10 06:48:20;;;;;;;47.55;16.60;;;;;;;8.56;100.00;99501.53;5087050;28;20028;-29
2022/12/10 06:50:45;;;;;;;63.00;21.67;;;;;;;8.36;100.00;99512.34;5086914;28;20056;-29
2022/12/10 06:53:11;;;;;;;61.22;25.10;;;;;;;8.48;100.00;99515.09;5068699;28;20024;-31
2022/12/10 06:55:38;;;;;;;53.45;19.25;;;;;;;8.54;100.00;99519.53;5086729;28;20032;-32
2022/12/10 06:58:03;;;;;;;54.60;20.50;;;;;;;8.40;100.00;99493.06;5068497;28;20028;-36
2022/12/10 07:00:29;;;;;;;55.97;21.67;;;;;;;8.34;100.00;99523.19;5068397;28;20028;-30
2022/12/10 07:02:54;;;;;;;68.20;25.20;;;;;;;8.59;100.00;99517.84;5086764;28;20055;-30
2022/12/10 07:05:20;;;;;;;55.53;21.10;;;;;;;8.71;100.00;99519.81;5086662;28;20480;-28
2022/12/10 07:07:46;;;;;;;49.70;18.25;;;;;;;8.87;100.00;99515.75;5085923;28;20036;-28
2022/12/10 07:10:11;;;;;;;48.88;19.55;;;;;;;8.68;100.00;99505.09;5068333;28;20042;-30
2022/12/10 07:12:37;;;;;;;49.28;17.30;;;;;;;8.62;100.00;99506.81;5086635;28;20025;-28
2022/12/10 07:15:03;;;;;;;58.80;23.35;;;;;;;8.60;100.00;99519.50;5068131;28;20035;-32
2022/12/10 07:17:28;;;;;;;51.47;19.40;;;;;;;8.68;100.00;99526.34;5086036;28;20048;-33
2022/12/10 07:19:54;;;;;;;55.17;20.83;;;;;;;8.61;100.00;99520.31;5085984;28;20043;-30
2022/12/10 07:22:19;;;;;;;55.67;21.77;;;;;;;8.62;100.00;99512.13;5068478;28;20864;-30
2022/12/10 07:24:45;;;;;;;55.85;21.38;;;;;;;8.84;100.00;99520.47;5089982;28;20031;-30
2022/12/10 07:27:10;;;;;;;56.85;21.67;;;;;;;8.67;100.00;99524.75;5090563;28;20036;-30
2022/12/10 07:29:35;;;;;;;74.28;29.67;;;;;;;8.72;100.00;99510.78;5089979;28;20654;-28
2022/12/10 07:32:01;;;;;;;97.05;37.97;;;;;;;8.92;100.00;99510.59;5090382;28;20028;-30
2022/12/10 07:34:27;;;;;;;72.65;26.50;;;;;;;9.08;100.00;99510.00;5090267;28;20032;-30
2022/12/10 07:36:52;;;;;;;67.03;23.67;;;;;;;8.90;100.00;99499.34;5089854;28;20097;-28
2022/12/10 07:39:18;;;;;;;98.25;38.88;;;;;;;9.20;100.00;99502.88;5090364;28;20036;-35
2022/12/10 07:41:47;;;;;;;66.25;25.20;;;;;;;9.40;100.00;99509.81;5089995;28;20024;-31
2022/12/10 07:44:12;;;;;;;57.90;21.73;;;;;;;9.20;100.00;99516.19;5071641;28;20125;-34
2022/12/10 07:46:38;;;;;;;62.17;24.73;;;;;;;9.12;100.00;99518.34;5090255;28;20107;-30
2022/12/10 07:49:03;;;;;;;53.10;18.98;;;;;;;8.98;100.00;99520.34;5090116;28;20077;-34
2022/12/10 07:51:30;;;;;;;64.00;23.35;;;;;;;9.02;100.00;99522.31;5089866;28;20028;-29
2022/12/10 07:53:55;;;;;;;48.22;19.05;;;;;;;9.09;100.00;99500.97;5089765;28;20028;-29
2022/12/10 07:56:22;;;;;;;46.47;18.08;;;;;;;9.16;100.00;99516.88;5089354;28;20039;-28
2022/12/10 07:58:48;;;;;;;45.47;18.33;;;;;;;9.08;100.00;99504.66;5089608;28;20081;-28
2022/12/10 08:01:22;;;;;;;54.55;21.05;;;;;;;9.04;100.00;99487.53;5071469;28;20032;-28
2022/12/10 08:03:47;;;;;;;48.97;20.02;;;;;;;9.19;100.00;99503.09;5070986;28;20119;-30
2022/12/10 08:06:18;;;;;;;49.42;19.17;;;;;;;9.21;100.00;99498.38;5089593;28;20027;-28
2022/12/10 08:08:44;;;;;;;51.78;19.08;;;;;;;9.16;100.00;99498.25;5071475;28;20446;-28
2022/12/10 08:11:11;;;;;;;54.72;21.45;;;;;;;8.90;100.00;99491.38;5089660;28;20085;-33
2022/12/10 08:13:37;;;;;;;57.70;21.00;;;;;;;8.92;100.00;99478.69;5089692;28;20020;-29
2022/12/10 08:16:11;;;;;;;56.72;21.83;;;;;;;9.08;100.00;99499.34;5089724;28;20028;-28
2022/12/10 08:18:36;;;;;;;59.38;23.10;;;;;;;9.27;100.00;99509.97;5089263;28;20153;-31
2022/12/10 08:21:13;;;;;;;60.63;22.80;;;;;;;9.09;100.00;99500.97;5089281;28;20488;-28
2022/12/10 08:23:39;;;;;;;54.08;21.30;;;;;;;9.17;100.00;99481.22;5070848;28;20032;-30
2022/12/10 08:26:06;;;;;;;58.60;21.15;;;;;;;9.40;100.00;99509.81;5071102;28;20028;-28
2022/12/10 08:28:31;;;;;;;57.22;21.38;;;;;;;9.48;100.00;99514.81;5089352;28;20059;-29
2022/12/10 08:30:57;;;;;;;58.00;22.00;;;;;;;9.68;100.00;99500.41;5089597;28;20452;-28
2022/12/10 08:33:22;;;;;;;58.67;23.48;;;;;;;9.62;100.00;99492.31;5070511;28;20410;-28
2022/12/10 08:35:47;;;;;;;60.50;22.95;;;;;;;9.67;100.00;99490.81;5069850;28;20089;-28
2022/12/10 08:38:13;;;;;;;65.07;25.27;;;;;;;9.94;100.00;99489.38;5088812;28;20180;-33
2022/12/10 08:40:40;;;;;;;54.70;22.88;;;;;;;9.96;100.00;99478.50;5070452;28;20024;-29
2022/12/10 08:43:06;;;;;;;54.22;21.35;;;;;;;9.84;100.00;99467.81;5089007;28;20043;-30
2022/12/10 08:45:31;;;;;;;63.97;24.88;;;;;;;10.00;100.00;99485.78;5088676;28;20032;-33
2022/12/10 08:47:57;;;;;;;67.50;26.30;;;;;;;10.03;100.00;99480.03;5070093;28;20036;-28
2022/12/10 08:50:22;;;;;;;67.03;24.30;;;;;;;9.87;100.00;99472.69;5088374;28;20107;-28
2022/12/10 08:52:47;;;;;;;64.28;24.55;;;;;;;9.72;100.00;99486.41;5088884;28;20032;-30
2022/12/10 08:55:13;;;;;;;62.90;23.70;;;;;;;9.64;100.00;99466.28;5070387;28;20043;-28
2022/12/10 08:57:38;;;;;;;67.30;26.15;;;;;;;9.79;100.00;99468.50;5070034;28;20123;-39
2022/12/10 09:00:04;;;;;;;68.18;28.65;;;;;;;9.78;100.00;99464.19;5088699;28;20028;-30
2022/12/10 09:02:30;;;;;;;66.53;25.75;;;;;;;9.78;100.00;99458.06;5088452;28;20483;-30
2022/12/10 09:04:55;;;;;;;67.60;28.23;;;;;;;9.58;100.00;99445.88;5088241;28;20020;-30
2022/12/10 09:07:21;;;;;;;70.07;28.33;;;;;;;9.55;100.00;99435.69;5069930;28;20097;-30
2022/12/10 09:09:47;;;;;;;66.53;25.83;;;;;;;9.54;100.00;99450.03;5088089;28;20032;-29
2022/12/10 09:12:12;;;;;;;65.43;26.20;;;;;;;9.46;100.00;99423.75;5088262;28;20161;-33
2022/12/10 09:14:40;;;;;;;70.05;28.52;;;;;;;9.86;100.00;99441.75;5088275;28;20575;-28
2022/12/10 09:17:06;;;;;;;75.72;28.52;;;;;;;9.75;100.00;99445.22;5087934;28;20476;-31
2022/12/10 09:19:31;;;;;;;73.93;29.13;;;;;;;9.64;100.00;99434.34;5088132;28;20109;-28
2022/12/10 09:21:56;;;;;;;72.43;28.90;;;;;;;9.75;100.00;99442.56;5069556;28;20039;-33
2022/12/10 09:24:22;;;;;;;70.90;28.60;;;;;;;9.73;100.00;99434.81;5087918;28;20032;-30
2022/12/10 09:26:47;;;;;;;72.80;28.75;;;;;;;9.79;100.00;99425.09;5070023;28;20024;-33
2022/12/10 09:29:13;;;;;;;71.68;25.27;;;;;;;9.99;100.00;99414.94;5088218;28;20115;-29
2022/12/10 09:31:38;;;;;;;57.83;24.02;;;;;;;10.01;100.00;99418.16;5088016;28;20063;-28
2022/12/10 09:34:04;;;;;;;70.38;29.38;;;;;;;10.25;100.00;99396.84;5069838;28;20089;-28
2022/12/10 09:36:29;;;;;;;74.65;33.38;;;;;;;10.25;100.00;99386.19;5070111;28;20032;-28
2022/12/10 09:38:55;;;;;;;69.65;29.92;;;;;;;10.52;100.00;99393.69;5087804;28;20491;-28
2022/12/10 09:41:39;;;;;;;66.30;27.30;;;;;;;10.36;100.00;99400.56;5069698;28;20832;-29
2022/12/10 09:44:04;;;;;;;100.30;50.95;;;;;;;10.26;100.00;99379.81;5087834;28;20035;-31
2022/12/10 09:46:51;;;;;;;64.75;25.48;;;;;;;10.27;100.00;99378.75;5087094;28;20025;-27
2022/12/10 09:49:31;;;;;;;79.95;32.15;;;;;;;10.33;100.00;99372.53;5087581;28;20031;-30
2022/12/10 09:52:00;;;;;;;93.30;39.92;;;;;;;10.29;100.00;99368.69;5069171;28;20048;-30
2022/12/10 09:54:32;;;;;;;84.13;35.05;;;;;;;10.51;100.00;99389.44;5069410;28;20024;-30
2022/12/10 09:57:00;;;;;;;69.38;29.52;;;;;;;10.71;100.00;99378.38;5087742;28;20114;-34
2022/12/10 09:59:39;;;;;;;58.33;23.67;;;;;;;10.47;100.00;99361.63;5087784;28;20035;-29
2022/12/10 10:02:43;;;;;;;62.72;29.65;;;;;;;10.58;100.00;99368.78;5069500;28;20039;-30
2022/12/10 10:05:08;;;;;;;52.92;23.38;;;;;;;10.54;100.00;99378.28;5004840;28;20468;-30
2022/12/10 10:07:39;;;;;;;55.45;24.00;;;;;;;10.59;100.00;99349.06;5005132;28;20144;-28
2022/12/10 10:10:11;;;;;;;66.88;27.38;;;;;;;10.51;100.00;99357.44;5038229;28;20040;-30
2022/12/10 10:12:38;;;;;;;82.70;35.70;;;;;;;10.58;100.00;99336.78;5087236;28;20024;-31
2022/12/10 10:15:16;;;;;;;62.78;30.90;;;;;;;10.82;100.00;99327.66;5068932;28;20028;-29
2022/12/10 10:17:45;;;;;;;51.40;23.33;;;;;;;11.24;100.00;99346.00;5066321;28;20072;-29
2022/12/10 10:20:12;;;;;;;58.40;37.25;;;;;;;11.37;100.00;99330.72;5069245;28;20115;-32
2022/12/10 10:22:39;;;;;;;40.40;18.42;;;;;;;11.37;100.00;99323.53;5068743;28;20042;-28
2022/12/10 10:25:05;;;;;;;44.40;22.60;;;;;;;11.27;100.00;99318.81;5069333;28;20396;-28
2022/12/10 10:27:33;;;;;;;40.42;19.83;;;;;;;11.15;99.95;99304.75;5068977;28;20035;-28
2022/12/10 10:30:02;;;;;;;50.22;24.40;;;;;;;11.21;100.00;99309.13;5068249;28;20067;-34
2022/12/10 10:32:47;;;;;;;42.65;20.95;;;;;;;11.13;100.00;99312.19;5086815;28;20031;-28
2022/12/10 10:35:23;;;;;;;38.63;18.52;;;;;;;10.89;100.00;99289.34;5066085;28;20028;-30
2022/12/10 10:37:49;;;;;;;37.70;16.60;;;;;;;10.89;100.00;99298.19;5086663;28;20111;-32
2022/12/10 10:40:22;;;;;;;43.25;21.58;;;;;;;11.06;100.00;99301.66;5068605;28;20119;-28
2022/12/10 10:42:48;;;;;;;42.28;21.13;;;;;;;11.07;100.00;99299.81;5086426;28;20470;-32
2022/12/10 10:45:34;;;;;;;38.13;18.75;;;;;;;11.17;100.00;99299.16;5086658;28;20115;-29
2022/12/10 10:48:21;;;;;;;40.63;17.35;;;;;;;11.21;99.59;99287.75;5085126;28;20101;-28
2022/12/10 10:50:49;;;;;;;41.58;21.98;;;;;;;11.13;100.00;99292.69;5067865;28;20032;-30
2022/12/10 10:53:28;;;;;;;32.00;15.27;;;;;;;11.30;99.08;99284.69;5086837;28;20063;-27
2022/12/10 10:55:56;;;;;;;29.63;13.80;;;;;;;11.22;99.73;99278.72;5086491;28;20526;-34
2022/12/10 10:58:22;;;;;;;;;;;;;;;11.46;100.00;99273.19;5070481;28;20024;-28
2022/12/10 11:01:05;;;;;;;40.17;15.85;;;;;;;11.29;100.00;99272.41;5090990;28;19935;-32
2022/12/10 11:03:33;;;;;;;31.88;15.02;;;;;;;10.95;100.00;99245.69;5072670;28;20119;-30
2022/12/10 11:05:59;;;;;;;32.50;15.60;;;;;;;11.00;100.00;99264.47;5072345;28;20036;-28
2022/12/10 11:08:29;;;;;;;34.25;16.63;;;;;;;11.16;100.00;99258.34;5090165;28;20078;-28
2022/12/10 11:11:10;;;;;;;33.35;16.15;;;;;;;10.97;100.00;99287.13;5072605;28;20046;-29
2022/12/10 11:13:37;;;;;;;39.65;17.42;;;;;;;11.03;100.00;99269.31;5090696;28;20024;-29
2022/12/10 11:16:15;;;;;;;36.58;17.55;;;;;;;11.14;100.00;99284.47;5090279;28;20051;-31
2022/12/10 11:19:02;;;;;;;38.83;18.77;;;;;;;10.83;100.00;99291.13;5088845;28;20443;-28
2022/12/10 11:21:29;;;;;;;38.73;17.67;;;;;;;10.82;100.00;99279.63;5089813;28;20036;-28
2022/12/10 11:23:57;;;;;;;38.93;20.43;;;;;;;10.82;100.00;99284.97;5090227;28;20598;-32
2022/12/10 11:27:01;;;;;;;38.42;18.27;;;;;;;10.95;100.00;99267.03;5072068;28;20323;-30
2022/12/10 11:29:34;;;;;;;37.13;17.70;;;;;;;10.90;100.00;99237.63;5089733;28;20571;-32
2022/12/10 11:32:34;;;;;;;32.38;16.85;;;;;;;11.04;100.00;99254.94;5088967;28;20032;-30
2022/12/10 11:35:03;;;;;;;38.35;19.98;;;;;;;10.91;100.00;99223.22;5087760;28;20060;-32
2022/12/10 11:37:51;;;;;;;43.65;20.83;;;;;;;11.27;100.00;99238.75;5068529;28;20020;-30
2022/12/10 11:40:45;;;;;;;59.53;32.65;;;;;;;11.31;100.00;99246.28;5051941;28;20025;-28